createdAt,value
2022-11-30T00:00:18.767Z,97.14
2022-11-30T00:01:18.780Z,97.40
2022-11-30T00:02:18.989Z,96.78
2022-11-30T00:03:18.900Z,96.78
2022-11-30T00:04:18.751Z,97.09
2022-11-30T00:05:18.736Z,97.24
2022-11-30T00:06:18.835Z,97.09
2022-11-30T00:07:18.774Z,97.30
2022-11-30T00:08:18.721Z,97.30
2022-11-30T00:09:18.724Z,97.30
2022-11-30T00:10:18.731Z,96.99
2022-11-30T00:11:18.689Z,96.89
2022-11-30T00:12:18.700Z,97.50
2022-11-30T00:13:18.699Z,96.89
2022-11-30T00:14:18.680Z,96.89
2022-11-30T00:15:18.685Z,96.89
2022-11-30T00:16:18.712Z,97.30
2022-11-30T00:17:19.074Z,97.19
2022-11-30T00:18:18.714Z,96.78
2022-11-30T00:19:19.064Z,96.89
2022-11-30T00:20:18.644Z,97.09
2022-11-30T00:21:18.636Z,96.89
2022-11-30T00:22:18.618Z,97.19
2022-11-30T00:23:18.613Z,97.30
2022-11-30T00:24:18.611Z,96.89
2022-11-30T00:25:18.599Z,97.44
2022-11-30T00:26:18.621Z,97.50
2022-11-30T00:27:18.577Z,97.40
2022-11-30T00:28:18.589Z,96.99
2022-11-30T00:29:18.563Z,96.83
2022-11-30T00:30:18.572Z,96.78
2022-11-30T00:31:18.755Z,96.89
2022-11-30T00:32:18.566Z,97.09
2022-11-30T00:33:18.567Z,97.40
2022-11-30T00:34:18.589Z,97.19
2022-11-30T00:35:18.530Z,96.78
2022-11-30T00:36:18.537Z,96.89
2022-11-30T00:37:18.523Z,96.58
2022-11-30T00:38:18.525Z,96.78
2022-11-30T00:39:18.925Z,96.78
2022-11-30T00:40:18.535Z,96.84
2022-11-30T00:41:18.530Z,97.19
2022-11-30T00:42:18.497Z,97.30
2022-11-30T00:43:18.516Z,96.89
2022-11-30T00:44:19.724Z,96.58
2022-11-30T00:45:18.484Z,96.99
2022-11-30T00:46:18.520Z,96.43
2022-11-30T00:47:18.454Z,96.89
2022-11-30T00:48:18.445Z,97.19
2022-11-30T00:49:18.901Z,97.05
2022-11-30T00:50:18.509Z,97.09
2022-11-30T00:51:18.423Z,97.30
2022-11-30T00:52:18.435Z,96.47
2022-11-30T00:53:18.403Z,96.99
2022-11-30T00:54:18.427Z,96.99
2022-11-30T00:55:18.418Z,96.58
2022-11-30T00:56:18.388Z,97.09
2022-11-30T00:57:18.399Z,96.58
2022-11-30T00:58:18.394Z,96.27
2022-11-30T00:59:18.363Z,96.33
2022-11-30T01:00:18.815Z,97.09
2022-11-30T01:01:18.430Z,96.53
2022-11-30T01:02:18.489Z,96.73
2022-11-30T01:03:18.347Z,97.19
2022-11-30T01:04:19.749Z,97.30
2022-11-30T01:05:18.326Z,96.37
2022-11-30T01:06:18.340Z,96.89
2022-11-30T01:07:18.409Z,97.05
2022-11-30T01:08:18.306Z,96.78
2022-11-30T01:09:19.636Z,97.15
2022-11-30T01:10:18.429Z,96.84
2022-11-30T01:11:18.277Z,96.68
2022-11-30T01:12:18.290Z,96.58
2022-11-30T01:13:18.262Z,96.47
2022-11-30T01:14:18.266Z,96.43
2022-11-30T01:15:18.292Z,96.84
2022-11-30T01:16:18.393Z,96.94
2022-11-30T01:17:18.249Z,97.05
2022-11-30T01:18:18.255Z,97.15
2022-11-30T01:19:18.239Z,96.84
2022-11-30T01:20:18.237Z,97.05
2022-11-30T01:21:19.327Z,96.64
2022-11-30T01:22:18.239Z,96.53
2022-11-30T01:23:18.214Z,96.84
2022-11-30T01:24:18.570Z,96.53
2022-11-30T01:25:18.193Z,97.25
2022-11-30T01:26:18.192Z,96.84
2022-11-30T01:27:18.187Z,96.84
2022-11-30T01:28:18.155Z,96.84
2022-11-30T01:29:18.161Z,96.53
2022-11-30T01:30:18.157Z,96.53
2022-11-30T01:31:18.229Z,97.09
2022-11-30T01:32:18.264Z,96.94
2022-11-30T01:33:18.823Z,97.19
2022-11-30T01:34:18.181Z,96.47
2022-11-30T01:35:18.139Z,96.78
2022-11-30T01:36:18.119Z,97.50
2022-11-30T01:37:18.119Z,97.09
2022-11-30T01:38:18.122Z,96.64
2022-11-30T01:40:45.182Z,97.25
2022-11-30T01:41:44.731Z,96.68
2022-11-30T01:42:44.747Z,97.15
2022-11-30T01:43:44.723Z,96.64
2022-11-30T01:44:45.071Z,96.53
2022-11-30T01:45:44.817Z,97.40
2022-11-30T01:46:44.712Z,96.64
2022-11-30T01:47:44.711Z,96.84
2022-11-30T01:48:44.728Z,97.36
2022-11-30T01:49:44.682Z,97.36
2022-11-30T01:50:46.054Z,97.36
2022-11-30T01:51:44.668Z,97.50
2022-11-30T01:52:44.688Z,97.25
2022-11-30T01:53:44.698Z,96.84
2022-11-30T01:54:45.015Z,96.73
2022-11-30T01:55:44.687Z,97.36
2022-11-30T01:56:45.424Z,97.36
2022-11-30T01:57:44.654Z,97.15
2022-11-30T01:58:44.650Z,96.84
2022-11-30T01:59:44.624Z,96.84
2022-11-30T02:00:45.102Z,96.84
2022-11-30T02:01:44.710Z,96.84
2022-11-30T02:02:44.653Z,96.53
2022-11-30T02:03:44.607Z,96.94
2022-11-30T02:04:45.003Z,96.53
2022-11-30T02:05:44.587Z,96.94
2022-11-30T02:06:44.612Z,97.05
2022-11-30T02:07:44.740Z,97.19
2022-11-30T02:08:44.659Z,96.64
2022-11-30T02:09:44.596Z,96.89
2022-11-30T02:10:44.583Z,96.94
2022-11-30T02:11:44.651Z,96.84
2022-11-30T02:12:44.564Z,96.78
2022-11-30T02:13:45.188Z,97.19
2022-11-30T02:14:44.868Z,97.15
2022-11-30T02:15:44.636Z,97.15
2022-11-30T02:16:44.516Z,97.05
2022-11-30T02:17:44.505Z,97.05
2022-11-30T02:18:44.560Z,96.84
2022-11-30T02:19:44.524Z,96.84
2022-11-30T02:20:44.501Z,97.15
2022-11-30T02:21:44.486Z,96.53
2022-11-30T02:22:44.476Z,96.84
2022-11-30T02:23:44.459Z,96.53
2022-11-30T02:24:44.746Z,96.64
2022-11-30T02:25:44.487Z,97.19
2022-11-30T02:26:44.451Z,96.43
2022-11-30T02:27:44.452Z,97.19
2022-11-30T02:28:44.439Z,96.89
2022-11-30T02:29:44.429Z,96.89
2022-11-30T02:30:44.947Z,96.78
2022-11-30T02:31:44.417Z,96.99
2022-11-30T02:32:44.454Z,97.40
2022-11-30T02:33:44.416Z,96.89
2022-11-30T02:34:44.585Z,96.99
2022-11-30T02:35:44.416Z,97.44
2022-11-30T02:36:44.863Z,97.03
2022-11-30T02:37:44.380Z,96.89
2022-11-30T02:38:44.390Z,97.40
2022-11-30T02:39:44.375Z,97.50
2022-11-30T02:40:44.370Z,96.99
2022-11-30T02:41:44.807Z,97.09
2022-11-30T02:42:44.429Z,97.50
2022-11-30T02:43:44.346Z,97.50
2022-11-30T02:44:44.806Z,97.09
2022-11-30T02:45:44.368Z,96.99
2022-11-30T02:46:44.388Z,97.50
2022-11-30T02:47:44.339Z,97.05
2022-11-30T02:48:44.366Z,97.09
2022-11-30T02:49:44.290Z,96.99
2022-11-30T02:50:44.352Z,96.99
2022-11-30T02:51:45.049Z,97.30
2022-11-30T02:52:44.316Z,97.19
2022-11-30T02:53:45.148Z,97.30
2022-11-30T02:54:44.651Z,97.30
2022-11-30T02:55:44.268Z,97.50
2022-11-30T02:56:44.260Z,96.68
2022-11-30T02:57:44.314Z,97.40
2022-11-30T02:58:44.254Z,96.89
2022-11-30T02:59:44.278Z,96.89
2022-11-30T03:00:44.217Z,96.89
2022-11-30T03:01:44.234Z,96.99
2022-11-30T03:02:44.292Z,97.25
2022-11-30T03:03:44.649Z,97.25
2022-11-30T03:04:44.397Z,96.58
2022-11-30T03:05:44.206Z,97.30
2022-11-30T03:06:44.196Z,97.09
2022-11-30T03:07:44.228Z,96.89
2022-11-30T03:08:44.174Z,97.40
2022-11-30T03:09:44.981Z,97.09
2022-11-30T03:10:44.175Z,97.09
2022-11-30T03:11:44.174Z,97.30
2022-11-30T03:12:44.139Z,97.34
2022-11-30T03:13:44.163Z,97.30
2022-11-30T03:14:45.257Z,97.30
2022-11-30T03:15:44.168Z,97.30
2022-11-30T03:16:44.945Z,96.94
2022-11-30T03:17:44.145Z,97.61
2022-11-30T03:18:44.106Z,97.61
2022-11-30T03:19:44.117Z,96.89
2022-11-30T03:21:05.818Z,97.61
2022-11-30T03:21:44.084Z,97.30
2022-11-30T03:22:44.085Z,97.30
2022-11-30T03:23:44.087Z,97.40
2022-11-30T03:24:44.405Z,96.94
2022-11-30T03:25:44.073Z,97.40
2022-11-30T03:26:44.491Z,96.99
2022-11-30T03:27:44.057Z,97.15
2022-11-30T03:28:44.046Z,97.45
2022-11-30T03:29:44.071Z,97.09
2022-11-30T03:30:44.076Z,97.30
2022-11-30T03:31:44.478Z,97.40
2022-11-30T03:32:45.429Z,97.19
2022-11-30T03:33:44.007Z,97.40
2022-11-30T03:34:44.283Z,97.09
2022-11-30T03:35:44.723Z,97.44
2022-11-30T03:36:43.995Z,97.14
2022-11-30T03:37:43.997Z,97.24
2022-11-30T03:38:44.158Z,97.30
2022-11-30T03:39:43.997Z,97.75
2022-11-30T03:40:44.344Z,97.75
2022-11-30T03:41:43.951Z,97.55
2022-11-30T03:42:43.950Z,97.34
2022-11-30T03:43:43.970Z,97.50
2022-11-30T03:44:44.371Z,97.44
2022-11-30T03:45:43.959Z,97.65
2022-11-30T03:46:43.938Z,97.75
2022-11-30T03:47:43.964Z,97.65
2022-11-30T03:48:43.917Z,97.55
2022-11-30T03:49:43.952Z,97.61
2022-11-30T03:50:43.884Z,97.55
2022-11-30T03:51:44.318Z,97.96
2022-11-30T03:52:43.869Z,97.75
2022-11-30T03:53:43.878Z,97.55
2022-11-30T03:54:44.152Z,97.55
2022-11-30T03:55:43.858Z,97.24
2022-11-30T03:56:43.852Z,97.96
2022-11-30T03:57:45.268Z,97.86
2022-11-30T03:58:44.267Z,97.24
2022-11-30T03:59:43.843Z,97.55
2022-11-30T04:00:43.819Z,97.34
2022-11-30T04:01:43.943Z,97.40
2022-11-30T04:02:45.153Z,97.24
2022-11-30T04:03:43.800Z,97.40
2022-11-30T04:04:43.930Z,97.44
2022-11-30T04:05:43.803Z,97.40
2022-11-30T04:06:43.792Z,96.99
2022-11-30T04:07:43.878Z,97.19
2022-11-30T04:08:43.758Z,96.99
2022-11-30T04:09:43.763Z,96.99
2022-11-30T04:10:43.757Z,97.25
2022-11-30T04:11:43.756Z,97.09
2022-11-30T04:12:44.590Z,97.25
2022-11-30T04:13:43.781Z,97.61
2022-11-30T04:14:43.722Z,97.09
2022-11-30T04:15:43.815Z,97.45
2022-11-30T04:16:43.801Z,96.73
2022-11-30T04:17:43.751Z,96.73
2022-11-30T04:18:43.698Z,96.84
2022-11-30T04:19:43.715Z,96.64
2022-11-30T04:20:43.686Z,96.84
2022-11-30T04:21:43.713Z,96.73
2022-11-30T04:22:43.994Z,96.64
2022-11-30T04:23:43.705Z,96.94
2022-11-30T04:24:43.707Z,96.73
2022-11-30T04:25:43.677Z,96.84
2022-11-30T04:26:43.661Z,96.84
2022-11-30T04:27:43.667Z,97.25
2022-11-30T04:28:43.732Z,97.36
2022-11-30T04:29:43.634Z,96.84
2022-11-30T04:30:43.633Z,97.05
2022-11-30T04:31:43.683Z,97.45
2022-11-30T04:32:43.607Z,96.84
2022-11-30T04:33:43.661Z,96.64
2022-11-30T04:34:43.600Z,96.53
2022-11-30T04:35:43.595Z,96.53
2022-11-30T04:36:43.593Z,96.73
2022-11-30T04:37:43.608Z,96.84
2022-11-30T04:38:43.591Z,96.73
2022-11-30T04:39:44.341Z,96.73
2022-11-30T04:40:43.555Z,97.20
2022-11-30T04:41:43.626Z,96.53
2022-11-30T04:42:43.548Z,96.80
2022-11-30T04:43:43.563Z,96.90
2022-11-30T04:44:43.636Z,97.00
2022-11-30T04:45:43.518Z,96.69
2022-11-30T04:46:43.556Z,96.64
2022-11-30T04:47:43.520Z,96.59
2022-11-30T04:48:43.531Z,96.80
2022-11-30T04:49:43.521Z,96.69
2022-11-30T04:50:43.528Z,96.43
2022-11-30T04:51:43.484Z,96.64
2022-11-30T04:52:43.479Z,96.94
2022-11-30T04:53:44.093Z,96.64
2022-11-30T04:54:43.460Z,96.73
2022-11-30T04:55:43.466Z,96.43
2022-11-30T04:56:43.469Z,96.94
2022-11-30T04:57:43.435Z,97.45
2022-11-30T04:58:43.472Z,97.36
2022-11-30T04:59:43.421Z,97.05
2022-11-30T05:00:44.743Z,97.45
2022-11-30T05:01:43.478Z,97.45
2022-11-30T05:02:50.589Z,96.43
2022-11-30T05:03:44.421Z,96.84
2022-11-30T05:04:43.539Z,95.81
2022-11-30T05:05:43.400Z,96.43
2022-11-30T05:06:44.061Z,97.05
2022-11-30T05:07:43.448Z,96.53
2022-11-30T05:08:43.369Z,96.53
2022-11-30T05:09:43.368Z,96.64
2022-11-30T05:10:43.496Z,96.73
2022-11-30T05:11:43.355Z,97.05
2022-11-30T05:12:43.360Z,97.56
2022-11-30T05:13:43.350Z,96.84
2022-11-30T05:14:43.352Z,96.43
2022-11-30T05:15:43.315Z,97.05
2022-11-30T05:16:43.322Z,96.84
2022-11-30T05:17:43.318Z,96.59
2022-11-30T05:18:44.522Z,96.33
2022-11-30T05:19:43.310Z,97.15
2022-11-30T05:20:43.292Z,96.94
2022-11-30T05:21:45.805Z,96.94
2022-11-30T05:22:43.281Z,96.02
2022-11-30T05:23:43.291Z,96.02
2022-11-30T05:24:43.283Z,96.17
2022-11-30T05:25:43.257Z,95.92
2022-11-30T05:26:43.274Z,95.71
2022-11-30T05:27:43.244Z,96.68
2022-11-30T05:28:43.274Z,95.96
2022-11-30T05:29:43.252Z,97.09
2022-11-30T05:30:43.285Z,96.64
2022-11-30T05:31:43.298Z,96.89
2022-11-30T05:32:43.246Z,96.73
2022-11-30T05:33:43.201Z,96.53
2022-11-30T05:34:50.722Z,96.99
2022-11-30T05:35:45.746Z,96.84
2022-11-30T05:36:43.202Z,96.73
2022-11-30T05:37:43.202Z,97.15
2022-11-30T05:38:44.300Z,97.36
2022-11-30T05:39:43.163Z,96.53
2022-11-30T05:40:43.827Z,97.15
2022-11-30T05:41:43.201Z,97.36
2022-11-30T05:42:43.152Z,96.64
2022-11-30T05:43:43.149Z,97.05
2022-11-30T05:44:43.164Z,96.73
2022-11-30T05:45:43.127Z,96.64
2022-11-30T05:46:43.199Z,96.84
2022-11-30T05:47:43.113Z,96.53
2022-11-30T05:48:43.118Z,96.53
2022-11-30T05:49:43.114Z,97.25
2022-11-30T05:50:43.165Z,96.64
2022-11-30T05:51:43.085Z,96.73
2022-11-30T05:52:43.111Z,96.64
2022-11-30T05:53:43.114Z,96.80
2022-11-30T05:54:43.084Z,97.00
2022-11-30T05:55:43.076Z,96.43
2022-11-30T05:56:43.085Z,96.69
2022-11-30T05:57:43.081Z,97.20
2022-11-30T05:58:43.065Z,96.39
2022-11-30T05:59:43.040Z,96.80
2022-11-30T06:00:43.043Z,95.81
2022-11-30T06:01:43.161Z,96.12
2022-11-30T06:02:43.841Z,95.81
2022-11-30T06:03:43.041Z,95.92
2022-11-30T06:04:43.029Z,95.61
2022-11-30T06:05:43.052Z,96.02
2022-11-30T06:06:43.030Z,96.02
2022-11-30T06:07:43.061Z,96.43
2022-11-30T06:08:43.007Z,96.22
2022-11-30T06:09:44.397Z,97.15
2022-11-30T06:10:43.008Z,96.53
2022-11-30T06:11:42.970Z,96.94
2022-11-30T06:12:42.975Z,97.15
2022-11-30T06:13:42.955Z,96.22
2022-11-30T06:14:42.991Z,95.71
2022-11-30T06:15:42.934Z,95.61
2022-11-30T06:16:42.982Z,95.40
2022-11-30T06:17:44.258Z,95.65
2022-11-30T06:18:42.985Z,96.17
2022-11-30T06:19:42.935Z,97.19
2022-11-30T06:20:42.964Z,96.17
2022-11-30T06:21:42.930Z,96.47
2022-11-30T06:22:42.957Z,97.24
2022-11-30T06:23:42.952Z,97.19
2022-11-30T06:24:42.907Z,96.62
2022-11-30T06:25:42.893Z,96.31
2022-11-30T06:26:42.889Z,97.03
2022-11-30T06:27:42.855Z,96.89
2022-11-30T06:28:46.710Z,97.50
2022-11-30T06:29:43.879Z,96.99
2022-11-30T06:30:42.842Z,97.40
2022-11-30T06:31:42.861Z,96.68
2022-11-30T06:32:42.846Z,96.58
2022-11-30T06:33:42.820Z,97.09
2022-11-30T06:34:42.849Z,97.19
2022-11-30T06:35:42.804Z,96.47
2022-11-30T06:36:42.798Z,96.42
2022-11-30T06:37:42.797Z,97.14
2022-11-30T06:38:42.802Z,97.03
2022-11-30T06:40:05.367Z,96.72
2022-11-30T06:40:44.257Z,96.89
2022-11-30T06:41:42.795Z,97.09
2022-11-30T06:42:42.758Z,96.58
2022-11-30T06:43:42.757Z,96.68
2022-11-30T06:44:42.774Z,97.19
2022-11-30T06:45:42.791Z,97.40
2022-11-30T06:46:43.836Z,96.99
2022-11-30T06:47:42.714Z,97.15
2022-11-30T06:48:42.718Z,97.09
2022-11-30T06:49:42.824Z,97.40
2022-11-30T06:50:48.469Z,97.50
2022-11-30T06:51:43.720Z,97.30
2022-11-30T06:52:42.703Z,96.89
2022-11-30T06:53:42.676Z,97.09
2022-11-30T06:54:42.769Z,96.78
2022-11-30T06:55:42.695Z,96.47
2022-11-30T07:12:42.246Z,95.81
2022-11-30T07:13:42.222Z,95.81
2022-11-30T07:14:42.203Z,96.33
2022-11-30T07:15:42.191Z,96.12
2022-11-30T07:18:14.308Z,96.64
2022-11-30T07:19:08.605Z,96.94
2022-11-30T07:20:08.572Z,96.33
2022-11-30T07:21:08.630Z,96.64
2022-11-30T07:22:08.572Z,96.22
2022-11-30T07:23:08.575Z,96.22
2022-11-30T07:24:08.558Z,96.43
2022-11-30T07:25:08.561Z,97.05
2022-11-30T07:26:08.553Z,96.59
2022-11-30T07:27:26.817Z,96.73
2022-11-30T07:28:08.579Z,96.53
2022-11-30T07:29:08.522Z,96.12
2022-11-30T07:30:08.517Z,96.02
2022-11-30T07:31:13.332Z,96.02
2022-11-30T07:32:08.597Z,96.12
2022-11-30T07:33:08.538Z,96.43
2022-11-30T07:34:08.500Z,95.92
2022-11-30T07:35:08.490Z,96.33
2022-11-30T07:36:08.489Z,96.12
2022-11-30T07:37:08.474Z,97.05
2022-11-30T07:38:10.034Z,96.64
2022-11-30T07:39:08.491Z,96.84
2022-11-30T07:40:08.450Z,96.94
2022-11-30T07:41:08.462Z,96.73
2022-11-30T07:42:08.517Z,96.53
2022-11-30T07:43:08.439Z,97.00
2022-11-30T07:44:08.457Z,96.69
2022-11-30T07:45:08.417Z,96.53
2022-11-30T07:46:08.469Z,96.48
2022-11-30T07:47:08.422Z,96.69
2022-11-30T07:48:08.410Z,96.84
2022-11-30T07:49:08.443Z,96.94
2022-11-30T07:50:08.395Z,96.59
2022-11-30T07:51:08.397Z,96.69
2022-11-30T07:52:08.384Z,96.43
2022-11-30T07:53:08.410Z,96.94
2022-11-30T07:54:08.379Z,96.90
2022-11-30T07:55:08.376Z,97.10
2022-11-30T07:56:08.363Z,96.80
2022-11-30T07:57:08.370Z,96.53
2022-11-30T07:58:11.752Z,96.28
2022-11-30T07:59:09.383Z,97.10
2022-11-30T08:00:08.701Z,96.80
2022-11-30T08:01:08.483Z,96.39
2022-11-30T08:02:08.402Z,96.48
2022-11-30T08:03:08.318Z,96.69
2022-11-30T08:04:08.397Z,97.00
2022-11-30T08:05:08.297Z,97.00
2022-11-30T08:06:08.279Z,97.31
2022-11-30T08:07:08.295Z,96.75
2022-11-30T08:08:08.340Z,96.69
2022-11-30T08:09:08.292Z,96.90
2022-11-30T08:10:08.269Z,96.48
2022-11-30T08:11:08.265Z,96.80
2022-11-30T08:12:08.256Z,96.69
2022-11-30T08:13:08.273Z,96.80
2022-11-30T08:14:08.386Z,96.48
2022-11-30T08:15:29.177Z,96.90
2022-11-30T08:16:09.253Z,96.59
2022-11-30T08:17:08.313Z,96.18
2022-11-30T08:18:08.201Z,95.97
2022-11-30T08:19:08.224Z,95.77
2022-11-30T08:20:08.212Z,96.08
2022-11-30T08:21:08.221Z,96.08
2022-11-30T08:22:08.214Z,96.28
2022-11-30T08:23:08.170Z,95.36
2022-11-30T08:24:08.263Z,95.46
2022-11-30T08:25:08.178Z,95.77
2022-11-30T08:26:08.142Z,95.77
2022-11-30T08:27:08.201Z,96.28
2022-11-30T08:28:08.141Z,95.67
2022-11-30T08:29:08.132Z,95.87
2022-11-30T08:30:08.157Z,95.87
2022-11-30T08:31:08.192Z,95.81
2022-11-30T08:32:08.127Z,95.61
2022-11-30T08:33:08.117Z,95.77
2022-11-30T08:34:08.100Z,95.87
2022-11-30T08:35:08.091Z,95.87
2022-11-30T08:36:08.123Z,95.77
2022-11-30T08:37:08.129Z,96.08
2022-11-30T08:38:08.066Z,95.97
2022-11-30T08:39:08.089Z,96.39
2022-11-30T08:40:08.056Z,96.08
2022-11-30T08:41:08.065Z,96.08
2022-11-30T08:42:08.056Z,96.28
2022-11-30T08:43:08.041Z,96.39
2022-11-30T08:44:08.039Z,95.77
2022-11-30T08:45:08.039Z,95.77
2022-11-30T08:46:21.543Z,95.56
2022-11-30T08:47:09.064Z,95.87
2022-11-30T08:48:08.034Z,95.62
2022-11-30T08:49:21.002Z,95.77
2022-11-30T08:50:08.992Z,95.83
2022-11-30T08:51:07.978Z,95.42
2022-11-30T08:52:16.860Z,95.87
2022-11-30T08:53:08.972Z,95.87
2022-11-30T08:54:07.954Z,95.31
2022-11-30T08:55:07.972Z,95.21
2022-11-30T08:56:07.987Z,94.39
2022-11-30T08:57:07.972Z,94.84
2022-11-30T08:58:07.937Z,95.15
2022-11-30T08:59:07.931Z,93.98
2022-11-30T09:00:07.945Z,94.29
2022-11-30T09:01:07.929Z,94.49
2022-11-30T09:02:07.915Z,95.31
2022-11-30T09:03:07.899Z,94.59
2022-11-30T09:04:07.926Z,95.01
2022-11-30T09:05:07.890Z,95.21
2022-11-30T09:06:07.873Z,95.42
2022-11-30T09:07:07.898Z,95.17
2022-11-30T09:08:07.923Z,93.87
2022-11-30T09:09:07.888Z,95.06
2022-11-30T09:10:07.858Z,94.39
2022-11-30T09:11:07.866Z,94.45
2022-11-30T09:12:07.841Z,94.24
2022-11-30T09:13:07.830Z,93.87
2022-11-30T09:14:07.856Z,93.46
2022-11-30T09:15:07.829Z,94.49
2022-11-30T09:16:07.866Z,94.18
2022-11-30T09:17:07.803Z,95.01
2022-11-30T09:18:07.783Z,93.87
2022-11-30T09:19:07.813Z,95.01
2022-11-30T09:20:07.819Z,94.59
2022-11-30T09:21:07.795Z,94.80
2022-11-30T09:22:07.774Z,94.90
2022-11-30T09:23:07.755Z,94.85
2022-11-30T09:24:07.752Z,95.06
2022-11-30T09:25:07.748Z,94.55
2022-11-30T09:26:07.730Z,95.27
2022-11-30T09:27:07.757Z,94.24
2022-11-30T09:28:12.155Z,95.06
2022-11-30T09:29:07.728Z,94.96
2022-11-30T09:30:07.876Z,94.85
2022-11-30T09:31:07.792Z,93.83
2022-11-30T09:32:07.687Z,94.34
2022-11-30T09:33:07.758Z,94.14
2022-11-30T09:34:07.716Z,94.45
2022-11-30T09:35:12.598Z,94.34
2022-11-30T09:36:08.699Z,94.65
2022-11-30T09:37:07.692Z,95.17
2022-11-30T09:38:07.646Z,95.12
2022-11-30T09:39:07.667Z,94.04
2022-11-30T09:40:07.635Z,93.83
2022-11-30T09:41:07.652Z,93.99
2022-11-30T09:42:07.651Z,95.23
2022-11-30T09:43:07.638Z,94.10
2022-11-30T09:44:07.642Z,94.81
2022-11-30T09:45:07.614Z,94.10
2022-11-30T09:46:07.647Z,93.89
2022-11-30T09:47:07.644Z,93.93
2022-11-30T09:48:07.580Z,93.79
2022-11-30T09:49:07.601Z,94.51
2022-11-30T09:50:07.583Z,94.10
2022-11-30T09:51:07.623Z,93.99
2022-11-30T09:52:07.605Z,93.48
2022-11-30T09:53:07.556Z,93.85
2022-11-30T09:54:07.536Z,94.15
2022-11-30T09:55:07.590Z,93.89
2022-11-30T09:56:07.522Z,93.79
2022-11-30T09:57:07.545Z,93.89
2022-11-30T09:58:07.534Z,94.10
2022-11-30T09:59:07.514Z,94.10
2022-11-30T10:00:07.534Z,93.99
2022-11-30T10:01:07.688Z,93.59
2022-11-30T10:02:07.630Z,93.23
2022-11-30T10:03:07.709Z,93.54
2022-11-30T10:04:07.482Z,93.38
2022-11-30T10:05:07.486Z,92.66
2022-11-30T10:06:07.461Z,93.17
2022-11-30T10:07:07.474Z,93.68
2022-11-30T10:08:07.568Z,93.64
2022-11-30T10:09:07.458Z,92.86
2022-11-30T10:11:08.432Z,92.86
2022-11-30T10:12:07.439Z,92.66
2022-11-30T10:13:07.438Z,93.23
2022-11-30T10:14:07.415Z,93.59
2022-11-30T10:15:07.416Z,92.51
2022-11-30T10:16:07.500Z,92.93
2022-11-30T10:17:07.418Z,92.25
2022-11-30T10:18:07.381Z,93.13
2022-11-30T10:19:07.377Z,92.93
2022-11-30T10:20:07.413Z,93.38
2022-11-30T10:21:07.382Z,92.93
2022-11-30T10:22:07.355Z,93.13
2022-11-30T10:23:07.354Z,92.61
2022-11-30T10:24:07.363Z,93.02
2022-11-30T10:25:11.859Z,92.93
2022-11-30T10:26:07.333Z,92.82
2022-11-30T10:27:07.362Z,92.51
2022-11-30T10:28:24.379Z,91.22
2022-11-30T10:29:08.302Z,92.51
2022-11-30T10:30:07.318Z,92.66
2022-11-30T10:31:07.339Z,91.90
2022-11-30T10:32:07.307Z,92.46
2022-11-30T10:33:07.267Z,92.31
2022-11-30T10:34:07.274Z,92.66
2022-11-30T10:35:07.287Z,91.90
2022-11-30T10:36:07.269Z,93.02
2022-11-30T10:37:07.235Z,92.61
2022-11-30T10:38:07.517Z,91.69
2022-11-30T10:39:09.664Z,93.13
2022-11-30T10:40:08.271Z,92.21
2022-11-30T10:41:07.220Z,93.13
2022-11-30T10:42:07.253Z,92.41
2022-11-30T10:43:07.214Z,93.13
2022-11-30T10:44:07.194Z,92.00
2022-11-30T10:45:07.182Z,92.61
2022-11-30T10:46:10.220Z,92.72
2022-11-30T10:47:08.194Z,92.00
2022-11-30T10:48:07.195Z,93.13
2022-11-30T10:49:07.204Z,92.41
2022-11-30T10:50:07.150Z,92.00
2022-11-30T10:51:07.143Z,91.59
2022-11-30T10:52:07.157Z,91.90
2022-11-30T10:53:07.165Z,92.93
2022-11-30T10:54:07.124Z,92.00
2022-11-30T10:55:07.128Z,92.82
2022-11-30T10:56:07.128Z,92.04
2022-11-30T10:57:07.109Z,92.51
2022-11-30T10:58:07.093Z,93.13
2022-11-30T10:59:07.141Z,93.23
2022-11-30T11:00:07.109Z,92.82
2022-11-30T11:01:07.145Z,91.53
2022-11-30T11:02:07.151Z,92.10
2022-11-30T11:03:07.188Z,91.08
2022-11-30T11:04:07.117Z,91.49
2022-11-30T11:05:07.048Z,91.90
2022-11-30T11:06:07.055Z,92.41
2022-11-30T11:07:07.131Z,92.31
2022-11-30T11:08:07.782Z,92.21
2022-11-30T11:09:07.030Z,91.80
2022-11-30T11:10:07.006Z,91.90
2022-11-30T11:11:07.006Z,91.69
2022-11-30T11:12:07.020Z,92.31
2022-11-30T11:13:07.010Z,91.69
2022-11-30T11:14:06.981Z,92.21
2022-11-30T11:15:06.976Z,92.00
2022-11-30T11:16:07.038Z,92.00
2022-11-30T11:17:06.975Z,92.82
2022-11-30T11:18:06.969Z,92.10
2022-11-30T11:19:06.949Z,92.00
2022-11-30T11:20:06.968Z,90.77
2022-11-30T11:21:07.351Z,91.08
2022-11-30T11:22:06.949Z,91.08
2022-11-30T11:23:06.917Z,91.59
2022-11-30T11:24:06.905Z,90.05
2022-11-30T11:25:06.911Z,90.46
2022-11-30T11:26:06.886Z,90.67
2022-11-30T11:27:06.895Z,90.87
2022-11-30T11:28:06.891Z,90.97
2022-11-30T11:29:06.876Z,91.69
2022-11-30T11:30:06.862Z,91.49
2022-11-30T11:31:06.874Z,91.59
2022-11-30T11:32:06.852Z,91.69
2022-11-30T11:33:06.871Z,91.18
2022-11-30T11:34:06.833Z,92.00
2022-11-30T11:35:06.842Z,91.80
2022-11-30T11:36:06.813Z,91.80
2022-11-30T11:37:06.832Z,91.18
2022-11-30T11:38:06.810Z,92.00
2022-11-30T11:39:06.809Z,90.87
2022-11-30T11:40:06.792Z,91.80
2022-11-30T11:41:06.780Z,90.81
2022-11-30T11:42:06.780Z,90.67
2022-11-30T11:43:06.770Z,91.63
2022-11-30T11:44:06.794Z,92.51
2022-11-30T11:45:06.780Z,91.49
2022-11-30T11:46:06.881Z,92.14
2022-11-30T11:47:06.755Z,91.63
2022-11-30T11:48:06.743Z,91.74
2022-11-30T11:49:06.723Z,92.46
2022-11-30T11:50:06.735Z,92.41
2022-11-30T11:51:08.079Z,91.12
2022-11-30T11:52:06.724Z,91.53
2022-11-30T11:53:06.763Z,91.33
2022-11-30T11:54:06.779Z,91.12
2022-11-30T11:55:06.709Z,91.08
2022-11-30T11:56:06.683Z,90.91
2022-11-30T11:57:06.677Z,91.57
2022-11-30T11:58:06.725Z,91.53
2022-11-30T11:59:06.659Z,93.07
2022-11-30T12:00:15.458Z,92.55
2022-11-30T12:01:37.889Z,91.63
2022-11-30T12:02:07.652Z,91.94
2022-11-30T12:03:06.772Z,91.94
2022-11-30T12:04:06.693Z,92.14
2022-11-30T12:05:06.631Z,93.17
2022-11-30T12:06:06.649Z,92.55
2022-11-30T12:07:06.602Z,93.17
2022-11-30T12:08:06.641Z,93.17
2022-11-30T12:09:06.605Z,92.91
2022-11-30T12:10:21.910Z,92.50
2022-11-30T12:11:07.575Z,93.42
2022-11-30T12:12:06.568Z,93.83
2022-11-30T12:13:06.584Z,93.21
2022-11-30T12:14:06.539Z,93.42
2022-11-30T12:15:07.358Z,93.93
2022-11-30T12:16:06.619Z,93.32
2022-11-30T12:17:06.556Z,93.63
2022-11-30T12:18:12.467Z,94.18
2022-11-30T12:19:07.344Z,94.08
2022-11-30T12:20:06.520Z,93.98
2022-11-30T12:21:06.552Z,94.18
2022-11-30T12:22:06.715Z,93.77
2022-11-30T12:23:06.506Z,93.67
2022-11-30T12:24:06.477Z,93.67
2022-11-30T12:25:06.576Z,94.49
2022-11-30T12:26:06.486Z,94.29
2022-11-30T12:27:06.484Z,93.46
2022-11-30T12:28:06.443Z,93.77
2022-11-30T12:29:06.447Z,93.12
2022-11-30T12:30:06.487Z,93.05
2022-11-30T12:31:06.483Z,92.03
2022-11-30T12:32:06.458Z,93.05
2022-11-30T12:33:06.440Z,92.44
2022-11-30T12:34:06.402Z,92.54
2022-11-30T12:35:06.420Z,92.74
2022-11-30T12:36:06.393Z,93.40
2022-11-30T12:37:06.391Z,93.26
2022-11-30T12:38:06.409Z,92.74
2022-11-30T12:39:06.390Z,92.85
2022-11-30T12:40:06.377Z,93.87
2022-11-30T12:41:06.382Z,92.54
2022-11-30T12:42:06.354Z,93.26
2022-11-30T12:43:06.388Z,92.74
2022-11-30T12:44:06.348Z,92.74
2022-11-30T12:45:06.351Z,92.74
2022-11-30T12:46:06.389Z,93.26
2022-11-30T12:47:06.335Z,92.74
2022-11-30T12:48:06.413Z,92.95
2022-11-30T12:49:06.403Z,92.95
2022-11-30T12:50:06.322Z,92.54
2022-11-30T12:51:06.319Z,92.03
2022-11-30T12:52:06.298Z,91.93
2022-11-30T12:53:06.298Z,92.44
2022-11-30T12:54:06.270Z,91.72
2022-11-30T12:55:06.299Z,92.89
2022-11-30T12:56:06.271Z,93.92
2022-11-30T12:57:06.266Z,93.30
2022-11-30T12:58:06.251Z,92.79
2022-11-30T12:59:06.292Z,93.82
2022-11-30T13:00:06.467Z,93.30
2022-11-30T13:01:06.333Z,94.84
2022-11-30T13:02:06.261Z,93.92
2022-11-30T13:03:06.246Z,94.54
2022-11-30T13:04:06.256Z,94.43
2022-11-30T13:05:06.229Z,94.12
2022-11-30T13:06:06.203Z,94.12
2022-11-30T13:07:06.194Z,94.95
2022-11-30T13:08:06.229Z,94.17
2022-11-30T13:09:06.219Z,94.43
2022-11-30T13:10:06.171Z,94.54
2022-11-30T13:11:06.210Z,94.95
2022-11-30T13:12:06.230Z,95.25